Time;durP1;ratioP1;P1;durP2;ratioP2;P2;SDS_P1;SDS_P2;PMS_P1;PMS_P2;Temp;Humidity;BMP_temperature;BMP_pressure;BME280_temperature;BME280_humidity;BME280_pressure;Samples;Min_cycle;Max_cycle;Signal;HPM_P1;HPM_P2
2022/06/30 00:01:20;;;;;;;3.65;3.35;;;19.90;99.90;;;;;;5073973;28;20452;-67
2022/06/30 00:03:46;;;;;;;3.88;3.28;;;19.80;99.90;;;;;;5039279;28;20081;-67
2022/06/30 00:06:12;;;;;;;6.03;3.70;;;19.80;99.90;;;;;;5074938;28;20751;-67
2022/06/30 00:08:38;;;;;;;4.30;3.80;;;19.80;99.90;;;;;;5076810;28;20040;-67
2022/06/30 00:11:09;;;;;;;6.70;3.45;;;19.80;99.90;;;;;;5054796;28;20045;-67
2022/06/30 00:13:36;;;;;;;3.78;3.13;;;19.80;99.90;;;;;;5080706;28;20036;-67
2022/06/30 00:16:03;;;;;;;4.78;3.17;;;19.80;99.90;;;;;;5054781;28;20051;-67
2022/06/30 00:18:29;;;;;;;5.18;3.25;;;19.80;99.90;;;;;;5055558;28;20058;-67
2022/06/30 00:20:55;;;;;;;3.95;3.47;;;19.70;99.90;;;;;;5070688;28;20044;-67
2022/06/30 00:23:21;;;;;;;4.30;3.28;;;19.70;99.90;;;;;;5057968;28;20043;-67
2022/06/30 00:25:47;;;;;;;3.17;2.40;;;19.70;99.90;;;;;;5073306;28;20058;-67
2022/06/30 00:28:12;;;;;;;3.35;2.63;;;19.60;99.90;;;;;;5055537;28;20040;-67
2022/06/30 00:30:38;;;;;;;3.53;3.22;;;19.60;99.90;;;;;;5058228;28;20042;-67
2022/06/30 00:33:03;;;;;;;4.22;2.90;;;19.50;99.90;;;;;;5054880;28;20044;-68
2022/06/30 00:35:29;;;;;;;4.60;3.28;;;19.60;99.90;;;;;;5076242;28;20048;-67
2022/06/30 00:37:55;;;;;;;3.85;2.65;;;19.60;99.90;;;;;;5073410;28;21545;-67
2022/06/30 00:40:21;;;;;;;3.30;2.78;;;19.50;99.90;;;;;;5074585;28;20036;-67
2022/06/30 00:42:46;;;;;;;5.57;3.35;;;19.50;99.90;;;;;;5054875;28;20048;-67
2022/06/30 00:45:12;;;;;;;3.25;3.05;;;19.50;99.90;;;;;;5056461;28;20051;-67
2022/06/30 00:47:38;;;;;;;3.70;3.33;;;19.40;99.90;;;;;;5077678;28;20160;-67
2022/06/30 00:50:04;;;;;;;4.40;3.50;;;19.30;99.90;;;;;;5072312;28;20880;-67
2022/06/30 00:52:34;;;;;;;3.58;3.17;;;19.40;99.90;;;;;;5053726;28;20046;-67
2022/06/30 00:55:01;;;;;;;3.67;3.38;;;19.30;99.90;;;;;;5071968;28;20058;-67
2022/06/30 00:57:28;;;;;;;2.80;2.60;;;19.20;99.90;;;;;;5060593;28;20047;-67
2022/06/30 00:59:57;;;;;;;3.88;3.50;;;19.20;99.90;;;;;;5056509;28;20124;-67
2022/06/30 01:02:24;;;;;;;4.00;3.20;;;19.10;99.90;;;;;;5056820;28;20118;-67
2022/06/30 01:04:53;;;;;;;4.53;3.25;;;19.00;99.90;;;;;;5070844;28;20747;-67
2022/06/30 01:07:21;;;;;;;3.25;2.95;;;18.90;99.90;;;;;;5057913;28;20113;-67
2022/06/30 01:12:51;;;;;;;3.70;3.40;;;19.00;99.90;;;;;;4970919;28;20053;-68
2022/06/30 01:15:18;;;;;;;4.03;2.88;;;18.90;99.90;;;;;;4990033;28;20038;-67
2022/06/30 01:17:46;;;;;;;4.15;2.90;;;18.90;99.90;;;;;;5005951;28;20095;-67
2022/06/30 01:20:12;;;;;;;3.85;3.08;;;18.90;99.90;;;;;;5058693;28;20032;-67
2022/06/30 01:22:38;;;;;;;6.90;2.80;;;18.90;99.90;;;;;;5054528;28;20045;-67
2022/06/30 01:25:05;;;;;;;3.20;2.90;;;18.80;99.90;;;;;;5074132;28;20390;-67
2022/06/30 01:27:31;;;;;;;5.18;3.10;;;18.90;99.90;;;;;;5070975;28;20059;-67
2022/06/30 01:29:58;;;;;;;7.93;2.90;;;19.00;99.90;;;;;;5058220;28;20040;-67
2022/06/30 01:32:24;;;;;;;4.68;3.17;;;18.80;99.90;;;;;;5057190;28;20101;-67
2022/06/30 01:34:50;;;;;;;6.38;2.88;;;18.80;99.90;;;;;;5069043;28;20555;-68
2022/06/30 01:37:16;;;;;;;4.43;2.72;;;18.80;99.90;;;;;;5072726;28;20142;-67
2022/06/30 01:39:42;;;;;;;5.05;2.53;;;18.70;99.90;;;;;;5073759;28;20067;-67
2022/06/30 01:42:07;;;;;;;3.33;2.92;;;18.70;99.90;;;;;;5074983;28;20051;-67
2022/06/30 01:44:33;;;;;;;6.75;3.10;;;18.70;99.90;;;;;;5043384;28;20143;-68
2022/06/30 01:46:59;;;;;;;4.13;2.53;;;18.60;99.90;;;;;;5065762;28;20051;-67
2022/06/30 01:49:24;;;;;;;7.05;2.72;;;18.60;99.90;;;;;;5058574;28;21308;-67
2022/06/30 01:51:50;;;;;;;3.33;3.03;;;18.60;99.90;;;;;;5073217;28;20043;-67
2022/06/30 01:54:16;;;;;;;3.13;2.60;;;18.70;99.90;;;;;;5071246;28;20048;-67
2022/06/30 01:56:41;;;;;;;5.80;4.03;;;18.60;99.90;;;;;;5055307;28;20048;-67
2022/06/30 01:59:07;;;;;;;3.95;2.70;;;18.50;99.90;;;;;;5073955;28;20043;-67
2022/06/30 02:01:33;;;;;;;3.67;2.70;;;18.50;99.90;;;;;;5057724;28;20394;-67
2022/06/30 02:04:46;;;;;;;2.95;2.75;;;18.50;99.90;;;;;;5058384;28;20043;-67
2022/06/30 02:06:45;;;;;;;4.18;3.10;;;18.40;99.90;;;;;;5050738;28;20482;-67
2022/06/30 02:09:11;;;;;;;5.10;3.00;;;18.40;99.90;;;;;;5070108;28;20047;-67
2022/06/30 02:11:37;;;;;;;5.32;2.70;;;18.40;99.90;;;;;;5056644;28;20506;-67
2022/06/30 02:14:03;;;;;;;4.22;2.83;;;18.30;99.90;;;;;;5040002;28;20052;-67
2022/06/30 02:16:29;;;;;;;5.40;2.97;;;18.30;99.90;;;;;;5059109;28;20044;-67
2022/06/30 02:18:54;;;;;;;4.07;2.78;;;18.30;99.90;;;;;;5063858;28;20051;-67
2022/06/30 02:21:20;;;;;;;5.43;3.22;;;18.30;99.90;;;;;;5074783;28;20853;-67
2022/06/30 02:23:46;;;;;;;4.85;3.00;;;18.20;99.90;;;;;;5055396;28;20036;-67
2022/06/30 02:26:11;;;;;;;6.22;3.33;;;18.20;99.90;;;;;;5073209;28;20733;-67
2022/06/30 02:28:37;;;;;;;6.43;3.20;;;18.10;99.90;;;;;;5074786;28;20512;-67
2022/06/30 02:31:02;;;;;;;3.50;3.20;;;18.10;99.90;;;;;;5059719;28;20044;-68
2022/06/30 02:33:28;;;;;;;3.42;3.13;;;18.10;99.90;;;;;;5083338;28;20076;-67
2022/06/30 02:35:53;;;;;;;3.97;3.60;;;18.10;99.90;;;;;;5076025;28;20040;-67
2022/06/30 02:38:20;;;;;;;5.60;3.63;;;18.00;99.90;;;;;;5072792;28;20036;-67
2022/06/30 02:40:45;;;;;;;5.03;3.47;;;18.00;99.90;;;;;;5070398;28;20078;-67
2022/06/30 02:43:12;;;;;;;3.15;2.85;;;18.00;99.90;;;;;;5061462;28;20436;-68
2022/06/30 02:45:37;;;;;;;5.07;3.15;;;18.00;99.90;;;;;;5080662;28;20043;-68
2022/06/30 02:48:03;;;;;;;3.67;2.80;;;18.00;99.90;;;;;;5064392;28;20401;-67
2022/06/30 02:50:29;;;;;;;5.50;3.08;;;18.00;99.90;;;;;;5058718;28;20234;-68
2022/06/30 02:52:55;;;;;;;3.03;2.78;;;17.90;99.90;;;;;;5075104;28;20186;-67
2022/06/30 02:55:21;;;;;;;5.25;3.17;;;18.00;99.90;;;;;;5080512;28;20173;-67
2022/06/30 02:57:47;;;;;;;9.55;3.67;;;18.00;99.90;;;;;;5073533;28;20115;-68
2022/06/30 03:00:13;;;;;;;3.30;3.00;;;18.00;99.90;;;;;;5074694;28;20377;-67
2022/06/30 03:02:39;;;;;;;4.60;3.38;;;17.90;99.90;;;;;;5060741;28;20050;-68
2022/06/30 03:05:06;;;;;;;2.90;2.70;;;17.90;99.90;;;;;;5077560;28;20477;-67
2022/06/30 03:07:32;;;;;;;7.05;3.30;;;17.90;99.90;;;;;;5046680;28;20040;-68
2022/06/30 03:09:58;;;;;;;3.20;2.90;;;17.90;99.90;;;;;;5073237;28;21636;-67
2022/06/30 03:12:23;;;;;;;4.38;2.88;;;17.90;99.90;;;;;;5075320;28;20044;-67
2022/06/30 03:14:50;;;;;;;4.63;2.80;;;17.90;99.90;;;;;;5055911;28;20052;-67
2022/06/30 03:17:16;;;;;;;2.80;2.60;;;17.90;99.90;;;;;;5079492;28;20081;-68
2022/06/30 03:19:41;;;;;;;3.80;2.80;;;17.90;99.90;;;;;;5055835;28;20470;-68
2022/06/30 03:22:07;;;;;;;3.10;2.80;;;17.90;99.90;;;;;;5060189;28;20075;-68
2022/06/30 03:24:33;;;;;;;4.15;2.75;;;17.90;99.90;;;;;;5060261;28;20050;-67
2022/06/30 03:26:58;;;;;;;4.28;3.00;;;17.90;99.90;;;;;;5077465;28;20046;-68
2022/06/30 03:29:24;;;;;;;4.88;2.67;;;17.90;99.90;;;;;;5077318;28;20048;-67
2022/06/30 03:31:50;;;;;;;3.35;2.72;;;17.90;99.90;;;;;;5076642;28;20298;-67
2022/06/30 03:34:15;;;;;;;4.43;2.85;;;17.90;99.90;;;;;;5074063;28;20039;-68
2022/06/30 03:36:41;;;;;;;3.63;2.47;;;18.00;99.90;;;;;;5060995;28;20048;-67
2022/06/30 03:39:07;;;;;;;4.90;3.03;;;17.90;99.90;;;;;;5076104;28;20430;-68
2022/06/30 03:41:34;;;;;;;3.25;2.95;;;17.90;99.90;;;;;;5072460;28;20079;-67
2022/06/30 03:43:59;;;;;;;3.05;2.75;;;17.90;99.90;;;;;;5057244;28;20052;-68
2022/06/30 03:46:25;;;;;;;6.53;3.20;;;17.90;99.90;;;;;;5058027;28;20051;-68
2022/06/30 03:48:51;;;;;;;3.90;2.85;;;17.90;99.90;;;;;;5058664;28;20191;-67
2022/06/30 03:51:17;;;;;;;5.25;2.85;;;17.90;99.90;;;;;;5058499;28;20112;-68
2022/06/30 03:53:42;;;;;;;3.40;2.58;;;18.00;99.90;;;;;;5056378;28;20072;-68
2022/06/30 03:56:08;;;;;;;5.38;2.42;;;18.00;99.90;;;;;;5074472;28;20064;-67
2022/06/30 03:58:34;;;;;;;3.78;2.80;;;18.00;99.90;;;;;;5077184;28;20801;-67
2022/06/30 04:01:00;;;;;;;3.22;2.63;;;18.10;99.90;;;;;;5054246;28;20336;-67
2022/06/30 04:03:26;;;;;;;3.22;2.58;;;18.10;99.90;;;;;;5075417;28;20148;-68
2022/06/30 04:05:52;;;;;;;3.55;2.50;;;18.40;99.90;;;;;;5073020;28;20201;-67
2022/06/30 04:08:17;;;;;;;5.38;2.95;;;18.20;99.90;;;;;;5073069;28;20040;-67
2022/06/30 04:10:43;;;;;;;3.40;2.63;;;18.30;99.90;;;;;;5073343;28;20060;-67
2022/06/30 04:13:09;;;;;;;3.90;2.65;;;18.70;99.90;;;;;;5056321;28;20040;-67
2022/06/30 04:15:34;;;;;;;2.67;2.38;;;18.80;99.90;;;;;;5057011;28;20546;-68
2022/06/30 04:18:00;;;;;;;4.95;3.00;;;18.90;99.90;;;;;;5073071;28;20143;-67
2022/06/30 04:20:26;;;;;;;3.47;2.55;;;18.90;99.90;;;;;;5058896;28;20052;-68
2022/06/30 04:22:53;;;;;;;6.78;3.08;;;18.90;99.90;;;;;;5068970;28;20036;-69
2022/06/30 04:25:19;;;;;;;6.30;3.45;;;18.90;99.90;;;;;;5072780;28;20047;-67
2022/06/30 04:27:49;;;;;;;5.35;3.33;;;19.00;99.90;;;;;;5056483;28;20040;-68
2022/06/30 04:32:37;;;;;;;3.20;2.88;;;19.00;99.90;;;;;;5060342;28;20054;-68
2022/06/30 04:33:02;;;;;;;5.85;2.70;;;19.10;99.90;;;;;;5056200;28;20141;-68
2022/06/30 04:35:28;;;;;;;2.90;2.53;;;19.70;99.90;;;;;;5073723;28;20500;-68
2022/06/30 04:37:58;;;;;;;2.47;2.22;;;20.50;99.90;;;;;;5052879;28;20044;-68
2022/06/30 04:43:08;;;;;;;4.72;2.40;;;21.90;99.90;;;;;;5028714;28;20056;-68
2022/06/30 04:45:33;;;;;;;3.80;2.47;;;22.40;99.90;;;;;;5056846;28;20044;-68
2022/06/30 04:47:59;;;;;;;2.30;2.10;;;22.90;99.90;;;;;;5071626;28;20040;-69
2022/06/30 04:50:24;;;;;;;3.33;2.15;;;23.70;99.90;;;;;;5054050;28;20116;-68
2022/06/30 04:52:50;;;;;;;5.38;2.58;;;24.00;99.90;;;;;;5054753;28;20043;-68
2022/06/30 04:55:16;;;;;;;3.33;2.40;;;24.50;99.90;;;;;;5072954;28;21972;-68
2022/06/30 04:57:44;;;;;;;3.97;1.88;;;25.00;99.90;;;;;;5057678;28;20063;-68
2022/06/30 05:00:10;;;;;;;2.58;2.10;;;25.20;99.90;;;;;;5055956;28;20139;-68
2022/06/30 05:02:36;;;;;;;2.30;2.00;;;25.50;99.90;;;;;;5073950;28;20489;-68
2022/06/30 05:05:02;;;;;;;4.80;2.58;;;25.80;99.90;;;;;;5045192;28;20126;-68
2022/06/30 05:07:28;;;;;;;9.07;3.00;;;26.00;99.90;;;;;;5074016;28;20042;-68
2022/06/30 05:09:54;;;;;;;5.22;2.00;;;26.30;99.90;;;;;;5056210;28;20051;-68
2022/06/30 05:12:20;;;;;;;3.95;2.17;;;26.80;99.90;;;;;;5070567;28;20070;-68
2022/06/30 05:14:45;;;;;;;3.40;2.00;;;27.00;99.90;;;;;;5041999;28;20048;-68
2022/06/30 05:17:11;;;;;;;2.42;1.83;;;27.00;99.90;;;;;;5073081;28;20044;-67
2022/06/30 05:19:37;;;;;;;3.65;2.10;;;27.40;99.90;;;;;;5052657;28;20457;-67
2022/06/30 05:22:03;;;;;;;2.47;1.98;;;27.90;99.90;;;;;;5072038;28;20047;-67
2022/06/30 05:27:13;;;;;;;4.78;1.95;;;28.40;99.90;;;;;;5071501;28;20048;-67
2022/06/30 05:29:39;;;;;;;6.60;2.20;;;27.70;99.90;;;;;;5072261;28;20051;-65
2022/06/30 05:32:05;;;;;;;3.28;2.53;;;27.10;99.90;;;;;;5054483;28;20405;-66
2022/06/30 05:34:30;;;;;;;5.00;2.28;;;26.70;99.90;;;;;;5061636;28;20048;-67
2022/06/30 05:36:56;;;;;;;2.42;2.22;;;26.30;99.90;;;;;;5057700;28;20056;-67
2022/06/30 05:39:21;;;;;;;2.83;2.15;;;26.10;99.90;;;;;;5071907;28;20032;-67
2022/06/30 05:41:47;;;;;;;5.00;2.45;;;25.70;99.90;;;;;;5064150;28;20086;-67
2022/06/30 05:44:13;;;;;;;4.38;2.33;;;25.70;99.90;;;;;;5066947;28;20526;-67
2022/06/30 05:46:38;;;;;;;3.25;2.45;;;25.60;99.90;;;;;;5065515;28;20145;-67
2022/06/30 05:49:06;;;;;;;4.93;2.67;;;25.50;99.90;;;;;;5067354;28;20046;-67
2022/06/30 05:51:32;;;;;;;2.85;2.28;;;25.50;99.90;;;;;;5069181;28;20567;-67
2022/06/30 05:53:58;;;;;;;2.22;2.10;;;25.60;99.90;;;;;;5057105;28;20045;-67
2022/06/30 05:56:24;;;;;;;4.53;2.63;;;25.60;99.90;;;;;;5056484;28;20048;-67
2022/06/30 05:58:49;;;;;;;6.85;2.40;;;25.40;99.90;;;;;;5072287;28;20042;-67
2022/06/30 06:01:15;;;;;;;2.83;2.35;;;25.40;99.90;;;;;;5061466;28;20428;-67
2022/06/30 06:03:40;;;;;;;5.60;2.95;;;25.50;99.90;;;;;;5069102;28;20059;-67
2022/06/30 06:06:06;;;;;;;3.47;3.17;;;25.30;99.90;;;;;;5076440;28;20039;-67
2022/06/30 06:08:32;;;;;;;4.85;2.60;;;25.40;99.90;;;;;;5055283;28;20051;-67
2022/06/30 06:10:57;;;;;;;5.40;3.13;;;25.40;99.90;;;;;;5056649;28;20069;-67
2022/06/30 06:13:23;;;;;;;3.53;2.95;;;25.30;99.90;;;;;;5069079;28;20496;-67
2022/06/30 06:15:48;;;;;;;3.17;2.88;;;25.20;99.90;;;;;;5077403;28;20097;-67
2022/06/30 06:18:15;;;;;;;7.20;3.45;;;25.30;99.90;;;;;;5054738;28;20043;-67
2022/06/30 06:20:42;;;;;;;4.72;3.25;;;25.50;99.90;;;;;;5071156;28;20101;-67
2022/06/30 06:23:08;;;;;;;6.60;3.83;;;25.50;99.90;;;;;;5069047;28;20396;-67
2022/06/30 06:25:33;;;;;;;3.72;3.15;;;25.50;99.90;;;;;;5076021;28;20024;-67
2022/06/30 06:30:43;;;;;;;4.55;3.95;;;25.30;99.90;;;;;;5073189;28;20043;-67
2022/06/30 06:33:09;;;;;;;5.43;3.45;;;25.40;99.90;;;;;;5075562;28;20036;-67
2022/06/30 06:35:34;;;;;;;6.63;2.92;;;25.30;99.90;;;;;;5073878;28;20051;-67
2022/06/30 06:38:01;;;;;;;3.03;2.83;;;25.50;99.90;;;;;;5071688;28;20044;-67
2022/06/30 06:40:27;;;;;;;4.57;3.72;;;25.80;99.90;;;;;;5067034;28;20056;-67
2022/06/30 06:42:53;;;;;;;5.43;3.20;;;26.00;99.90;;;;;;5053235;28;20043;-67
2022/06/30 06:45:19;;;;;;;4.15;3.60;;;26.30;99.90;;;;;;5067398;28;20055;-67
2022/06/30 06:47:44;;;;;;;4.68;3.97;;;26.40;99.90;;;;;;5055401;28;20123;-67
2022/06/30 06:50:10;;;;;;;7.22;3.80;;;26.30;99.90;;;;;;5062264;28;20070;-67
2022/06/30 06:52:36;;;;;;;3.60;3.28;;;26.40;99.90;;;;;;5055986;28;20164;-67
2022/06/30 06:55:03;;;;;;;6.95;4.50;;;26.20;99.90;;;;;;5078037;28;20036;-67
2022/06/30 06:57:34;;;;;;;6.10;3.88;;;26.20;99.90;;;;;;5055980;28;20048;-67
2022/06/30 07:00:01;;;;;;;5.57;4.20;;;26.30;99.90;;;;;;5057722;28;21313;-67
2022/06/30 07:02:26;;;;;;;7.70;4.85;;;26.30;99.90;;;;;;5057039;28;20040;-67
2022/06/30 07:04:52;;;;;;;7.35;4.22;;;26.30;99.90;;;;;;5073448;28;20397;-67
2022/06/30 07:07:17;;;;;;;18.48;5.45;;;26.50;99.90;;;;;;5070371;28;20043;-67
2022/06/30 07:09:43;;;;;;;10.07;5.10;;;26.60;99.90;;;;;;5055230;28;20039;-67
2022/06/30 07:12:09;;;;;;;14.15;4.25;;;26.60;99.90;;;;;;5056242;28;20109;-67
2022/06/30 07:14:34;;;;;;;7.40;4.22;;;26.70;99.90;;;;;;5057806;28;20040;-67
2022/06/30 07:17:00;;;;;;;5.20;4.07;;;26.80;99.90;;;;;;5075863;28;20558;-67
2022/06/30 07:19:26;;;;;;;8.40;3.88;;;27.00;99.90;;;;;;5072232;28;20645;-67
2022/06/30 07:21:51;;;;;;;6.45;4.10;;;27.20;99.90;;;;;;5075490;28;20043;-67
2022/06/30 07:24:18;;;;;;;4.75;3.92;;;27.40;99.90;;;;;;5059066;28;20158;-67
2022/06/30 07:26:43;;;;;;;7.60;4.57;;;27.60;99.90;;;;;;5058889;28;20050;-67
2022/06/30 07:29:09;;;;;;;4.90;4.40;;;27.80;99.90;;;;;;5073040;28;20120;-67
2022/06/30 07:31:34;;;;;;;5.97;5.28;;;28.00;99.90;;;;;;5056680;28;20127;-67
2022/06/30 07:34:00;;;;;;;4.82;4.40;;;27.60;99.90;;;;;;5071773;28;20055;-68
2022/06/30 07:36:26;;;;;;;6.60;4.68;;;27.30;99.90;;;;;;5058743;28;20040;-67
2022/06/30 07:38:51;;;;;;;6.75;5.10;;;27.00;99.90;;;;;;5075132;28;20430;-67
2022/06/30 07:41:18;;;;;;;7.30;5.50;;;26.90;99.90;;;;;;5054946;28;20658;-67
2022/06/30 07:43:44;;;;;;;4.78;4.38;;;26.80;99.90;;;;;;5057654;28;20044;-67
2022/06/30 07:46:09;;;;;;;5.78;5.00;;;26.80;99.90;;;;;;5072217;28;20039;-67
2022/06/30 07:48:35;;;;;;;5.00;4.60;;;26.90;99.90;;;;;;5055934;28;20040;-67
2022/06/30 07:51:01;;;;;;;6.78;6.20;;;27.10;99.90;;;;;;5073536;28;20067;-67
2022/06/30 07:53:27;;;;;;;6.45;5.22;;;27.10;99.90;;;;;;5072940;28;20050;-67
2022/06/30 07:55:53;;;;;;;10.85;5.95;;;27.00;99.90;;;;;;5073784;28;20044;-67
2022/06/30 07:58:18;;;;;;;4.60;3.95;;;26.80;99.90;;;;;;5074111;28;20371;-67
2022/06/30 08:00:44;;;;;;;7.50;5.97;;;26.90;99.90;;;;;;5070540;28;20040;-67
2022/06/30 08:03:10;;;;;;;6.55;5.55;;;26.90;99.90;;;;;;5071221;28;20477;-66
2022/06/30 08:05:35;;;;;;;6.85;6.18;;;26.90;99.90;;;;;;5070845;28;20040;-67
2022/06/30 08:08:01;;;;;;;7.38;6.35;;;27.10;99.90;;;;;;5055795;28;20549;-67
2022/06/30 08:10:27;;;;;;;7.05;6.30;;;27.40;99.90;;;;;;5070082;28;20867;-67
2022/06/30 08:12:52;;;;;;;8.45;6.65;;;27.70;99.90;;;;;;5076196;28;20113;-67
2022/06/30 08:15:18;;;;;;;9.57;7.07;;;27.60;99.90;;;;;;5072090;28;20044;-67
2022/06/30 08:17:43;;;;;;;7.70;6.80;;;27.50;99.90;;;;;;5054145;28;20122;-67
2022/06/30 08:20:09;;;;;;;9.82;7.15;;;27.40;99.90;;;;;;5072456;28;20428;-67
2022/06/30 08:22:35;;;;;;;7.90;7.20;;;27.50;99.90;;;;;;5053675;28;20039;-67
2022/06/30 08:25:01;;;;;;;9.30;7.80;;;27.50;99.90;;;;;;5056568;28;20202;-67
2022/06/30 08:27:26;;;;;;;7.18;6.43;;;27.60;99.90;;;;;;5073958;28;20048;-66
2022/06/30 08:29:52;;;;;;;9.15;6.50;;;27.80;99.90;;;;;;5058099;28;20042;-66
2022/06/30 08:32:17;;;;;;;7.55;6.85;;;28.00;99.90;;;;;;5074347;28;20401;-67
2022/06/30 08:34:43;;;;;;;8.48;7.63;;;28.20;99.90;;;;;;5071654;28;20089;-67
2022/06/30 08:37:09;;;;;;;7.38;6.68;;;28.50;99.90;;;;;;5056708;28;20047;-67
2022/06/30 08:42:22;;;;;;;14.52;7.63;;;28.80;99.90;;;;;;5069537;28;20048;-66
2022/06/30 08:47:33;;;;;;;8.35;6.90;;;29.00;99.90;;;;;;5071933;28;20052;-67
2022/06/30 08:49:58;;;;;;;7.10;6.50;;;29.00;99.90;;;;;;5054819;28;20040;-67
2022/06/30 08:52:29;;;;;;;8.32;7.13;;;29.00;99.90;;;;;;5071588;28;20130;-67
2022/06/30 08:54:56;;;;;;;6.72;6.05;;;29.00;99.90;;;;;;5054152;28;20043;-67
2022/06/30 08:57:22;;;;;;;9.52;7.18;;;28.90;99.90;;;;;;5072514;28;20485;-66
2022/06/30 08:59:48;;;;;;;7.65;6.82;;;29.00;99.90;;;;;;5071618;28;20387;-66
2022/06/30 09:02:14;;;;;;;8.45;7.10;;;29.20;99.90;;;;;;5069676;28;20032;-66
2022/06/30 09:04:40;;;;;;;7.65;6.70;;;29.30;99.90;;;;;;5056245;28;20032;-66
2022/06/30 09:07:05;;;;;;;8.02;7.22;;;29.40;99.90;;;;;;5071384;28;20039;-66
2022/06/30 09:09:31;;;;;;;7.45;6.78;;;29.50;99.90;;;;;;5074135;28;20159;-66
2022/06/30 09:11:58;;;;;;;9.75;7.57;;;29.60;99.90;;;;;;5057627;28;20047;-66
2022/06/30 09:14:48;;;;;;;7.45;6.75;;;29.60;99.90;;;;;;5056743;28;20044;-66
2022/06/30 09:17:19;;;;;;;8.50;5.97;;;29.70;99.90;;;;;;5072567;28;20032;-66
2022/06/30 09:20:00;;;;;;;8.18;7.47;;;29.70;99.90;;;;;;5072977;28;20841;-66
2022/06/30 09:22:34;;;;;;;7.18;6.50;;;29.90;99.90;;;;;;5069803;28;20051;-66
2022/06/30 09:25:08;;;;;;;8.40;7.70;;;29.90;99.90;;;;;;5071536;28;20040;-66
2022/06/30 09:27:38;;;;;;;8.20;7.47;;;30.00;99.90;;;;;;5056365;28;20043;-66
2022/06/30 09:30:10;;;;;;;9.02;8.13;;;30.00;99.90;;;;;;5057840;28;20516;-67
2022/06/30 09:32:52;;;;;;;9.00;8.20;;;29.90;99.90;;;;;;5057542;28;20089;-67
2022/06/30 09:35:20;;;;;;;7.78;6.93;;;29.70;99.90;;;;;;5076253;28;20052;-66
2022/06/30 09:37:47;;;;;;;14.32;7.50;;;29.60;99.90;;;;;;5060306;28;20044;-66
2022/06/30 09:40:13;;;;;;;12.13;8.15;;;29.80;99.90;;;;;;5075706;28;20046;-66
2022/06/30 09:42:47;;;;;;;9.50;7.85;;;30.00;99.90;;;;;;5059799;28;20494;-66
2022/06/30 09:45:15;;;;;;;7.97;7.38;;;29.90;99.90;;;;;;5062221;28;20147;-67
2022/06/30 09:47:52;;;;;;;13.43;7.25;;;29.70;99.90;;;;;;5074073;28;20375;-67
2022/06/30 09:50:19;;;;;;;8.77;6.78;;;29.70;99.90;;;;;;5059364;28;20036;-65
2022/06/30 09:52:44;;;;;;;5.50;4.97;;;29.90;99.90;;;;;;5076652;28;20490;-66
2022/06/30 09:55:12;;;;;;;7.38;5.68;;;30.10;99.90;;;;;;5073002;28;20039;-66
2022/06/30 09:57:43;;;;;;;6.15;5.55;;;30.30;99.90;;;;;;5059270;28;20052;-66
2022/06/30 10:00:14;;;;;;;5.90;5.30;;;30.30;99.90;;;;;;5057997;28;20040;-66
2022/06/30 10:02:41;;;;;;;7.38;5.55;;;30.50;99.90;;;;;;5072869;28;20712;-66
2022/06/30 10:05:09;;;;;;;5.03;4.53;;;30.60;99.90;;;;;;5079799;28;20036;-66
2022/06/30 10:07:37;;;;;;;6.57;4.80;;;30.70;99.90;;;;;;5073535;28;20528;-66
2022/06/30 10:10:08;;;;;;;9.63;5.35;;;30.70;99.90;;;;;;5077109;28;20059;-66
2022/06/30 10:12:36;;;;;;;6.85;4.70;;;30.80;99.90;;;;;;5075918;28;20717;-66
2022/06/30 10:15:02;;;;;;;8.30;7.22;;;30.80;99.90;;;;;;5076621;28;20048;-66
2022/06/30 10:17:31;;;;;;;7.22;5.35;;;30.80;99.90;;;;;;5058297;28;20124;-66
2022/06/30 10:19:57;;;;;;;5.55;5.05;;;30.80;99.90;;;;;;5078893;28;20699;-66
2022/06/30 10:22:25;;;;;;;5.63;5.15;;;31.00;99.90;;;;;;5053975;28;20036;-66
2022/06/30 10:24:53;;;;;;;7.78;6.97;;;31.10;99.90;;;;;;5073434;28;20393;-66
2022/06/30 10:27:20;;;;;;;10.93;5.55;;;31.00;99.90;;;;;;5056192;28;20048;-66
2022/06/30 10:30:09;;;;;;;9.00;6.25;;;31.10;99.90;;;;;;5058438;28;20044;-66
2022/06/30 10:32:46;;;;;;;6.22;4.57;;;31.00;99.90;;;;;;5074627;28;20351;-66
2022/06/30 10:35:31;;;;;;;6.10;5.05;;;30.80;99.90;;;;;;5055663;28;20040;-66
2022/06/30 10:38:13;;;;;;;4.45;4.05;;;30.50;99.60;;;;;;5053352;28;20059;-66
2022/06/30 10:41:11;;;;;;;3.63;3.33;;;30.40;99.90;;;;;;5076247;28;20047;-66
2022/06/30 10:44:05;;;;;;;4.55;3.47;;;30.40;99.90;;;;;;5060136;28;20394;-66
2022/06/30 10:46:31;;;;;;;5.22;3.20;;;30.60;99.90;;;;;;5075955;28;20040;-66
2022/06/30 10:48:57;;;;;;;4.30;2.90;;;30.80;99.90;;;;;;5074635;28;20063;-66
2022/06/30 10:51:24;;;;;;;5.30;3.85;;;31.00;99.90;;;;;;5076747;28;20029;-66
2022/06/30 10:53:55;;;;;;;4.10;2.92;;;31.20;99.90;;;;;;5056205;28;20069;-66
2022/06/30 10:56:22;;;;;;;9.10;2.45;;;31.30;99.70;;;;;;5042846;28;20051;-66
2022/06/30 10:59:10;;;;;;;4.50;2.58;;;31.40;98.70;;;;;;5057212;28;20044;-66
2022/06/30 11:01:37;;;;;;;9.18;3.75;;;31.40;98.60;;;;;;5057368;28;20528;-66
2022/06/30 11:04:03;;;;;;;11.23;3.47;;;31.10;99.20;;;;;;5057425;28;20040;-66
2022/06/30 11:06:55;;;;;;;6.95;3.25;;;30.80;99.10;;;;;;5075969;28;20035;-66
2022/06/30 11:09:43;;;;;;;7.18;2.65;;;30.70;98.30;;;;;;5073716;28;20048;-66
2022/06/30 11:12:09;;;;;;;4.45;2.60;;;30.80;97.30;;;;;;5072604;28;21045;-65
2022/06/30 11:14:35;;;;;;;8.55;3.15;;;30.70;97.10;;;;;;5074585;28;20066;-66
2022/06/30 11:17:13;;;;;;;6.70;2.67;;;30.90;97.50;;;;;;5056952;28;20044;-66
2022/06/30 11:19:39;;;;;;;8.38;2.47;;;31.20;97.50;;;;;;5078136;28;20405;-66
2022/06/30 11:22:07;;;;;;;3.47;2.67;;;31.40;96.80;;;;;;5079523;28;20033;-66
2022/06/30 11:24:37;;;;;;;4.78;2.83;;;31.40;96.20;;;;;;5076765;28;20390;-66
2022/06/30 11:27:24;;;;;;;4.40;3.05;;;31.50;97.10;;;;;;5077094;28;21061;-66
2022/06/30 11:30:02;;;;;;;7.80;3.70;;;31.50;95.70;;;;;;5076761;28;20054;-66
2022/06/30 11:32:28;;;;;;;6.63;3.13;;;31.50;96.30;;;;;;5074572;28;20058;-66
2022/06/30 11:34:54;;;;;;;11.70;2.70;;;31.50;96.70;;;;;;5059863;28;20166;-66
2022/06/30 11:37:25;;;;;;;5.10;3.42;;;31.50;98.30;;;;;;5074515;28;20036;-66
2022/06/30 11:39:58;;;;;;;7.90;3.80;;;31.20;98.10;;;;;;5074674;28;20040;-66
2022/06/30 11:42:24;;;;;;;9.88;3.83;;;30.90;97.90;;;;;;5054820;28;20067;-66
2022/06/30 11:44:50;;;;;;;11.30;4.00;;;30.60;98.60;;;;;;5074459;28;20680;-66
2022/06/30 11:47:16;;;;;;;4.50;4.10;;;30.20;99.00;;;;;;5074228;28;20053;-66
2022/06/30 11:49:43;;;;;;;10.00;4.45;;;30.10;99.60;;;;;;5074775;28;20040;-66
2022/06/30 11:52:15;;;;;;;3.78;3.47;;;29.80;99.60;;;;;;5058912;28;20560;-66
2022/06/30 11:55:02;;;;;;;6.85;3.60;;;29.60;99.90;;;;;;5073208;28;20059;-66
2022/06/30 11:57:40;;;;;;;9.73;3.55;;;29.60;99.90;;;;;;5070313;28;20649;-66
2022/06/30 12:00:14;;;;;;;4.63;4.22;;;29.40;99.80;;;;;;5072911;28;20028;-66
2022/06/30 12:02:42;;;;;;;5.70;2.95;;;29.40;98.60;;;;;;5074457;28;20047;-66
2022/06/30 12:05:10;;;;;;;6.15;4.32;;;29.40;99.70;;;;;;5056747;28;20044;-66
2022/06/30 12:07:37;;;;;;;5.40;3.85;;;29.60;99.90;;;;;;5074436;28;20079;-66
2022/06/30 12:10:05;;;;;;;7.07;3.95;;;29.80;99.90;;;;;;5058397;28;20119;-66
2022/06/30 12:12:32;;;;;;;4.32;2.72;;;30.00;99.90;;;;;;5071345;28;20070;-66
2022/06/30 12:15:00;;;;;;;4.63;2.60;;;30.20;99.90;;;;;;5072188;28;20134;-66
2022/06/30 12:17:32;;;;;;;6.35;2.40;;;30.30;99.60;;;;;;5072652;28;20046;-66
2022/06/30 12:19:58;;;;;;;4.18;2.60;;;30.30;99.10;;;;;;5054191;28;20528;-66
2022/06/30 12:22:24;;;;;;;5.70;2.35;;;30.40;99.30;;;;;;5073346;28;20052;-66
2022/06/30 12:24:51;;;;;;;6.43;1.83;;;30.40;98.50;;;;;;5072955;28;20040;-66
2022/06/30 12:27:26;;;;;;;3.20;1.50;;;30.50;98.10;;;;;;5068736;28;20036;-66
2022/06/30 12:29:56;;;;;;;4.90;1.52;;;30.50;98.00;;;;;;5055790;28;20042;-66
2022/06/30 12:32:22;;;;;;;4.95;1.58;;;30.30;97.90;;;;;;5071195;28;20051;-66
2022/06/30 12:34:52;;;;;;;4.10;1.75;;;30.30;98.40;;;;;;5072276;28;20032;-66
2022/06/30 12:37:29;;;;;;;3.25;1.60;;;30.30;97.00;;;;;;5068867;28;20036;-66
2022/06/30 12:39:57;;;;;;;5.45;1.45;;;30.30;98.00;;;;;;5056579;28;20708;-66
2022/06/30 12:42:23;;;;;;;4.00;1.95;;;30.20;97.40;;;;;;5070367;28;20424;-66
2022/06/30 12:44:49;;;;;;;10.63;2.85;;;30.20;96.80;;;;;;5039722;28;20072;-66
2022/06/30 12:47:15;;;;;;;5.88;3.00;;;30.10;97.40;;;;;;5069227;28;20722;-66
2022/06/30 12:49:41;;;;;;;13.70;2.70;;;30.00;97.20;;;;;;5073065;28;20036;-67
2022/06/30 12:52:13;;;;;;;6.30;3.17;;;30.00;98.50;;;;;;5068413;28;20039;-66
2022/06/30 12:54:55;;;;;;;7.57;4.28;;;30.00;99.60;;;;;;5051741;28;20048;-66
2022/06/30 12:57:21;;;;;;;5.78;3.40;;;30.00;99.80;;;;;;5071228;28;20089;-66
2022/06/30 12:59:51;;;;;;;6.80;4.07;;;30.10;99.90;;;;;;5061526;28;20049;-66
2022/06/30 13:02:18;;;;;;;7.82;3.45;;;30.10;99.90;;;;;;5073474;28;20040;-66
2022/06/30 13:04:53;;;;;;;6.22;3.85;;;30.10;99.90;;;;;;5071052;28;20373;-66